TCISK LIPZ-LTAC
Flight info
| Callsign | TCISK |
|---|---|
| Flight time | 2h 12m |
| Altitude | 45000 |
| Route | ROSKA DCT SONIK DCT KEB DCT TORTO DCT RAMAP/N0469F490 DCT NISVA DCT BLO DCT DEDIN DCT VADEN DCT DIGBO DCT BKZ DCT GAYEM DCT ERKAL DCT ERSEN DCT YAVRU DCT SALGO |
| Aircraft | C750/M-SBDE3FGHRWXY/S |
Departure
| Time | 2026-05-06 17:36 |
|---|---|
| Airport | Venice Marco Polo Airport (LIPZ) |
Arrival
| Time | 2026-05-06 19:49 |
|---|---|
| Airport | Esenboğa International Airport (LTAC) |
| Time | Latitude | Longitude | Altitude | Speed | Heading |
|---|---|---|---|---|---|
| 2026-05-06 17:06 | 45.50748 | 12.34697 | 12 ft | 0 kts | 43° |
| 2026-05-06 17:28 | 45.50746 | 12.34694 | 12 ft | 2 kts | 43° |
| 2026-05-06 17:29 | 45.50733 | 12.34677 | 12 ft | 2 kts | 43° |
| 2026-05-06 17:29 | 45.50721 | 12.34660 | 12 ft | 2 kts | 43° |
| 2026-05-06 17:29 | 45.50708 | 12.34644 | 12 ft | 2 kts | 45° |
| 2026-05-06 17:29 | 45.50704 | 12.34624 | 12 ft | 2 kts | 134° |
| 2026-05-06 17:30 | 45.50707 | 12.34619 | 12 ft | 0 kts | 159° |
| 2026-05-06 17:31 | 45.50685 | 12.34653 | 12 ft | 10 kts | 131° |
| 2026-05-06 17:31 | 45.50626 | 12.34733 | 12 ft | 13 kts | 158° |
| 2026-05-06 17:31 | 45.50537 | 12.34667 | 12 ft | 20 kts | 223° |
| 2026-05-06 17:31 | 45.50407 | 12.34497 | 13 ft | 31 kts | 222° |
| 2026-05-06 17:32 | 45.50244 | 12.34289 | 13 ft | 27 kts | 222° |
| 2026-05-06 17:32 | 45.50117 | 12.34126 | 12 ft | 18 kts | 222° |
| 2026-05-06 17:32 | 45.50032 | 12.34017 | 12 ft | 16 kts | 222° |
| 2026-05-06 17:32 | 45.49959 | 12.33921 | 12 ft | 12 kts | 220° |
| 2026-05-06 17:33 | 45.49895 | 12.33849 | 12 ft | 11 kts | 206° |
| 2026-05-06 17:33 | 45.49824 | 12.33826 | 12 ft | 10 kts | 191° |
| 2026-05-06 17:33 | 45.49758 | 12.33808 | 12 ft | 9 kts | 190° |
| 2026-05-06 17:33 | 45.49698 | 12.33789 | 13 ft | 8 kts | 205° |
| 2026-05-06 17:34 | 45.49650 | 12.33734 | 13 ft | 10 kts | 223° |
| 2026-05-06 17:34 | 45.49591 | 12.33687 | 13 ft | 9 kts | 172° |
| 2026-05-06 17:34 | 45.49559 | 12.33720 | 13 ft | 0 kts | 132° |
| 2026-05-06 17:34 | 45.49551 | 12.33734 | 13 ft | 4 kts | 133° |
| 2026-05-06 17:35 | 45.49514 | 12.33790 | 12 ft | 14 kts | 131° |
| 2026-05-06 17:35 | 45.49518 | 12.33914 | 12 ft | 13 kts | 45° |
| 2026-05-06 17:35 | 45.49581 | 12.33994 | 12 ft | 7 kts | 41° |
| 2026-05-06 17:36 | 45.49708 | 12.34156 | 10 ft | 70 kts | 42° |
| 2026-05-06 17:36 | 45.50316 | 12.34948 | 173 ft | 138 kts | 46° |
| 2026-05-06 17:36 | 45.50969 | 12.35890 | 941 ft | 139 kts | 49° |
| 2026-05-06 17:36 | 45.51695 | 12.37046 | 1267 ft | 171 kts | 49° |
| 2026-05-06 17:37 | 45.52581 | 12.38281 | 1942 ft | 182 kts | 46° |
| 2026-05-06 17:37 | 45.53453 | 12.39698 | 2405 ft | 204 kts | 62° |
| 2026-05-06 17:37 | 45.53763 | 12.41745 | 3043 ft | 217 kts | 95° |
| 2026-05-06 17:37 | 45.53463 | 12.43789 | 4057 ft | 216 kts | 108° |
| 2026-05-06 17:38 | 45.53094 | 12.45872 | 5072 ft | 217 kts | 105° |
| 2026-05-06 17:38 | 45.52859 | 12.48039 | 5990 ft | 224 kts | 101° |
| 2026-05-06 17:38 | 45.52665 | 12.50275 | 6896 ft | 228 kts | 101° |
| 2026-05-06 17:38 | 45.52441 | 12.52537 | 7872 ft | 231 kts | 103° |
| 2026-05-06 17:39 | 45.52001 | 12.54731 | 8753 ft | 231 kts | 126° |
| 2026-05-06 17:39 | 45.50934 | 12.56536 | 9329 ft | 249 kts | 139° |
| 2026-05-06 17:39 | 45.49684 | 12.58370 | 9794 ft | 274 kts | 139° |
| 2026-05-06 17:39 | 45.48328 | 12.60425 | 10268 ft | 294 kts | 137° |
| 2026-05-06 17:40 | 45.46881 | 12.62658 | 10553 ft | 319 kts | 137° |
| 2026-05-06 17:40 | 45.45304 | 12.65067 | 10674 ft | 345 kts | 137° |
| 2026-05-06 17:40 | 45.43637 | 12.67605 | 11291 ft | 351 kts | 137° |
| 2026-05-06 17:40 | 45.41964 | 12.70159 | 12083 ft | 354 kts | 137° |
| 2026-05-06 17:41 | 45.40292 | 12.72703 | 12782 ft | 358 kts | 137° |
| 2026-05-06 17:41 | 45.38581 | 12.75300 | 13505 ft | 361 kts | 137° |
| 2026-05-06 17:41 | 45.36851 | 12.77927 | 14144 ft | 365 kts | 137° |
| 2026-05-06 17:41 | 45.35101 | 12.80582 | 14731 ft | 370 kts | 138° |
| 2026-05-06 17:42 | 45.33327 | 12.83271 | 15334 ft | 374 kts | 138° |
| 2026-05-06 17:42 | 45.31665 | 12.86170 | 15841 ft | 386 kts | 126° |
| 2026-05-06 17:42 | 45.30549 | 12.89625 | 16513 ft | 393 kts | 114° |
| 2026-05-06 17:42 | 45.29642 | 12.93323 | 17141 ft | 398 kts | 113° |
| 2026-05-06 17:43 | 45.28739 | 12.97067 | 17782 ft | 403 kts | 113° |
| 2026-05-06 17:43 | 45.27804 | 13.00848 | 18395 ft | 408 kts | 114° |
| 2026-05-06 17:43 | 45.26847 | 13.04669 | 19011 ft | 411 kts | 114° |
| 2026-05-06 17:43 | 45.25903 | 13.08473 | 19648 ft | 415 kts | 113° |
| 2026-05-06 17:44 | 45.24943 | 13.12362 | 20293 ft | 419 kts | 113° |
| 2026-05-06 17:44 | 45.23969 | 13.16281 | 20934 ft | 423 kts | 114° |
| 2026-05-06 17:44 | 45.22980 | 13.20240 | 21568 ft | 427 kts | 114° |
| 2026-05-06 17:44 | 45.21984 | 13.24228 | 22247 ft | 430 kts | 114° |
| 2026-05-06 17:45 | 45.20982 | 13.28240 | 22880 ft | 434 kts | 114° |
| 2026-05-06 17:45 | 45.19966 | 13.32295 | 23485 ft | 438 kts | 114° |
| 2026-05-06 17:45 | 45.18940 | 13.36381 | 23993 ft | 442 kts | 114° |
| 2026-05-06 17:45 | 45.17903 | 13.40508 | 24471 ft | 446 kts | 114° |
| 2026-05-06 17:46 | 45.16866 | 13.44624 | 24894 ft | 452 kts | 114° |
| 2026-05-06 17:46 | 45.15804 | 13.48834 | 25392 ft | 456 kts | 115° |
| 2026-05-06 17:46 | 45.14728 | 13.53094 | 25893 ft | 460 kts | 115° |
| 2026-05-06 17:46 | 45.13643 | 13.57375 | 26342 ft | 465 kts | 115° |
| 2026-05-06 17:47 | 45.12538 | 13.61724 | 26720 ft | 471 kts | 115° |
| 2026-05-06 17:47 | 45.11436 | 13.66061 | 27262 ft | 474 kts | 115° |
| 2026-05-06 17:47 | 45.10313 | 13.70481 | 27772 ft | 478 kts | 115° |
| 2026-05-06 17:47 | 45.09177 | 13.74928 | 28290 ft | 482 kts | 115° |
| 2026-05-06 17:48 | 45.08029 | 13.79414 | 28810 ft | 486 kts | 115° |
| 2026-05-06 17:48 | 45.06872 | 13.83932 | 29312 ft | 490 kts | 115° |
| 2026-05-06 17:48 | 45.05706 | 13.88477 | 29807 ft | 494 kts | 115° |
| 2026-05-06 17:48 | 45.04525 | 13.93072 | 30251 ft | 497 kts | 115° |
| 2026-05-06 17:49 | 45.03336 | 13.97682 | 30715 ft | 499 kts | 115° |
| 2026-05-06 17:49 | 45.02159 | 14.02247 | 31268 ft | 499 kts | 115° |
| 2026-05-06 17:49 | 45.00971 | 14.06848 | 31992 ft | 495 kts | 115° |
| 2026-05-06 17:49 | 44.99787 | 14.11414 | 32681 ft | 492 kts | 115° |
| 2026-05-06 17:50 | 44.98609 | 14.15946 | 33369 ft | 489 kts | 115° |
| 2026-05-06 17:50 | 44.97451 | 14.20394 | 34032 ft | 487 kts | 115° |
| 2026-05-06 17:50 | 44.96281 | 14.24885 | 34570 ft | 486 kts | 115° |
| 2026-05-06 17:50 | 44.95112 | 14.29358 | 35130 ft | 484 kts | 114° |
| 2026-05-06 17:51 | 44.93946 | 14.33818 | 35738 ft | 482 kts | 114° |
| 2026-05-06 17:51 | 44.92783 | 14.38253 | 36262 ft | 482 kts | 114° |
| 2026-05-06 17:51 | 44.91614 | 14.42700 | 36803 ft | 481 kts | 114° |
| 2026-05-06 17:51 | 44.90447 | 14.47134 | 37337 ft | 481 kts | 114° |
| 2026-05-06 17:52 | 44.89281 | 14.51559 | 37868 ft | 481 kts | 114° |
| 2026-05-06 17:52 | 44.88130 | 14.55917 | 38399 ft | 480 kts | 114° |
| 2026-05-06 17:52 | 44.86961 | 14.60333 | 38866 ft | 480 kts | 114° |
| 2026-05-06 17:52 | 44.85788 | 14.64756 | 39202 ft | 482 kts | 114° |
| 2026-05-06 17:53 | 44.84612 | 14.69181 | 39570 ft | 482 kts | 114° |
| 2026-05-06 17:53 | 44.83433 | 14.73616 | 39971 ft | 482 kts | 114° |
| 2026-05-06 17:53 | 44.82255 | 14.78036 | 40370 ft | 482 kts | 114° |
| 2026-05-06 17:53 | 44.81074 | 14.82454 | 40754 ft | 482 kts | 114° |
| 2026-05-06 17:54 | 44.79890 | 14.86875 | 41153 ft | 482 kts | 114° |
| 2026-05-06 17:54 | 44.78705 | 14.91298 | 41555 ft | 483 kts | 114° |
| 2026-05-06 17:54 | 44.77517 | 14.95723 | 41981 ft | 482 kts | 114° |
| 2026-05-06 17:54 | 44.76342 | 15.00088 | 42384 ft | 482 kts | 114° |
| 2026-05-06 17:55 | 44.75149 | 15.04513 | 42762 ft | 483 kts | 114° |
| 2026-05-06 17:55 | 44.73957 | 15.08927 | 43144 ft | 483 kts | 114° |
| 2026-05-06 17:55 | 44.72760 | 15.13350 | 43534 ft | 483 kts | 114° |
| 2026-05-06 17:55 | 44.71564 | 15.17763 | 43920 ft | 483 kts | 114° |
| 2026-05-06 17:56 | 44.70361 | 15.22190 | 44303 ft | 483 kts | 114° |
| 2026-05-06 17:56 | 44.69174 | 15.26555 | 44670 ft | 483 kts | 114° |
| 2026-05-06 17:56 | 44.67975 | 15.30955 | 44953 ft | 480 kts | 113° |
| 2026-05-06 17:56 | 44.66769 | 15.35368 | 44969 ft | 487 kts | 113° |
| 2026-05-06 17:57 | 44.64312 | 15.44343 | 44968 ft | 493 kts | 113° |
| 2026-05-06 17:57 | 44.61855 | 15.53285 | 44975 ft | 494 kts | 113° |
| 2026-05-06 17:58 | 44.59372 | 15.62283 | 44984 ft | 493 kts | 113° |
| 2026-05-06 17:58 | 44.56897 | 15.71226 | 44979 ft | 494 kts | 113° |
| 2026-05-06 17:59 | 44.54395 | 15.80227 | 44980 ft | 494 kts | 113° |
| 2026-05-06 17:59 | 44.51890 | 15.89211 | 44980 ft | 494 kts | 114° |
| 2026-05-06 18:00 | 44.49376 | 15.98190 | 44973 ft | 494 kts | 113° |
| 2026-05-06 18:00 | 44.46869 | 16.07114 | 44997 ft | 495 kts | 113° |
| 2026-05-06 18:01 | 44.44419 | 16.16155 | 44970 ft | 497 kts | 109° |
| 2026-05-06 18:01 | 44.42491 | 16.25470 | 44998 ft | 497 kts | 107° |
| 2026-05-06 18:02 | 44.40514 | 16.34675 | 44984 ft | 497 kts | 108° |
| 2026-05-06 18:02 | 44.38536 | 16.43950 | 44982 ft | 497 kts | 108° |
| 2026-05-06 18:03 | 44.36543 | 16.53249 | 44988 ft | 502 kts | 108° |
| 2026-05-06 18:03 | 44.34527 | 16.62577 | 44987 ft | 499 kts | 108° |
| 2026-05-06 18:04 | 44.32521 | 16.71868 | 44987 ft | 498 kts | 108° |
| 2026-05-06 18:04 | 44.30514 | 16.81071 | 44987 ft | 498 kts | 108° |
| 2026-05-06 18:05 | 44.28495 | 16.90330 | 44994 ft | 497 kts | 108° |
| 2026-05-06 18:05 | 44.26805 | 16.98022 | 44990 ft | 498 kts | 108° |
| 2026-05-06 18:06 | 44.24442 | 17.08760 | 44984 ft | 498 kts | 109° |
| 2026-05-06 18:06 | 44.22395 | 17.18000 | 45001 ft | 496 kts | 109° |
| 2026-05-06 18:07 | 44.20687 | 17.25688 | 45000 ft | 499 kts | 109° |
| 2026-05-06 18:07 | 44.18633 | 17.34899 | 45000 ft | 497 kts | 109° |
| 2026-05-06 18:08 | 44.16578 | 17.44069 | 44991 ft | 496 kts | 109° |
| 2026-05-06 18:08 | 44.14527 | 17.53186 | 44994 ft | 496 kts | 109° |
| 2026-05-06 18:09 | 44.12454 | 17.62361 | 44988 ft | 496 kts | 109° |
| 2026-05-06 18:09 | 44.10371 | 17.71539 | 44980 ft | 498 kts | 109° |
| 2026-05-06 18:10 | 44.08280 | 17.80716 | 44980 ft | 499 kts | 109° |
| 2026-05-06 18:10 | 44.06178 | 17.89899 | 44989 ft | 498 kts | 109° |
| 2026-05-06 18:11 | 44.04086 | 17.99005 | 44995 ft | 498 kts | 109° |
| 2026-05-06 18:11 | 44.01965 | 18.08195 | 44991 ft | 499 kts | 109° |
| 2026-05-06 18:12 | 43.99840 | 18.17367 | 44998 ft | 498 kts | 109° |
| 2026-05-06 18:12 | 43.97719 | 18.26479 | 45010 ft | 498 kts | 109° |
| 2026-05-06 18:13 | 43.95575 | 18.35657 | 45010 ft | 499 kts | 109° |
| 2026-05-06 18:13 | 43.93442 | 18.44761 | 45011 ft | 498 kts | 109° |
| 2026-05-06 18:14 | 43.91585 | 18.54044 | 45017 ft | 499 kts | 107° |
| 2026-05-06 18:14 | 43.89724 | 18.63324 | 45014 ft | 498 kts | 107° |
| 2026-05-06 18:15 | 43.87872 | 18.72536 | 45002 ft | 498 kts | 107° |
| 2026-05-06 18:15 | 43.86002 | 18.81799 | 44996 ft | 498 kts | 107° |
| 2026-05-06 18:16 | 43.84122 | 18.91052 | 44991 ft | 498 kts | 107° |
| 2026-05-06 18:16 | 43.82252 | 19.00236 | 44987 ft | 498 kts | 107° |
| 2026-05-06 18:17 | 43.80360 | 19.09469 | 44985 ft | 497 kts | 107° |
| 2026-05-06 18:17 | 43.78463 | 19.18689 | 44978 ft | 498 kts | 107° |
| 2026-05-06 18:18 | 43.76565 | 19.27872 | 44984 ft | 497 kts | 107° |
| 2026-05-06 18:18 | 43.74658 | 19.37062 | 44984 ft | 497 kts | 107° |
| 2026-05-06 18:19 | 43.72739 | 19.46262 | 44970 ft | 497 kts | 107° |
| 2026-05-06 18:19 | 43.70813 | 19.55455 | 44972 ft | 498 kts | 107° |
| 2026-05-06 18:20 | 43.68881 | 19.64642 | 44971 ft | 497 kts | 107° |
| 2026-05-06 18:20 | 43.66952 | 19.73765 | 44971 ft | 497 kts | 107° |
| 2026-05-06 18:21 | 43.65010 | 19.82915 | 44967 ft | 496 kts | 107° |
| 2026-05-06 18:21 | 43.63060 | 19.92059 | 44972 ft | 496 kts | 107° |
| 2026-05-06 18:22 | 43.61101 | 20.01208 | 44968 ft | 496 kts | 107° |
| 2026-05-06 18:22 | 43.59148 | 20.10285 | 44966 ft | 497 kts | 107° |
| 2026-05-06 18:23 | 43.57171 | 20.19439 | 44967 ft | 497 kts | 107° |
| 2026-05-06 18:23 | 43.55184 | 20.28597 | 44968 ft | 497 kts | 108° |
| 2026-05-06 18:24 | 43.53204 | 20.37683 | 44964 ft | 498 kts | 108° |
| 2026-05-06 18:24 | 43.51203 | 20.46826 | 44966 ft | 497 kts | 108° |
| 2026-05-06 18:25 | 43.49201 | 20.55933 | 44969 ft | 497 kts | 108° |
| 2026-05-06 18:25 | 43.47199 | 20.65004 | 44966 ft | 497 kts | 108° |
| 2026-05-06 18:26 | 43.45183 | 20.74099 | 44968 ft | 496 kts | 108° |
| 2026-05-06 18:26 | 43.43160 | 20.83186 | 44968 ft | 496 kts | 108° |
| 2026-05-06 18:27 | 43.41126 | 20.92288 | 44963 ft | 497 kts | 108° |
| 2026-05-06 18:27 | 43.39111 | 21.01258 | 45647 ft | 485 kts | 108° |
| 2026-05-06 18:28 | 43.38110 | 21.05700 | 45960 ft | 485 kts | 108° |
| 2026-05-06 18:28 | 43.37110 | 21.10133 | 46240 ft | 484 kts | 108° |
| 2026-05-06 18:28 | 43.36109 | 21.14558 | 46502 ft | 484 kts | 108° |
| 2026-05-06 18:28 | 43.35118 | 21.18929 | 46743 ft | 484 kts | 108° |
| 2026-05-06 18:29 | 43.34116 | 21.23343 | 46969 ft | 484 kts | 108° |
| 2026-05-06 18:29 | 43.33110 | 21.27763 | 47201 ft | 484 kts | 108° |
| 2026-05-06 18:29 | 43.32105 | 21.32171 | 47428 ft | 484 kts | 108° |
| 2026-05-06 18:29 | 43.31098 | 21.36578 | 47632 ft | 484 kts | 108° |
| 2026-05-06 18:30 | 43.30090 | 21.40981 | 47832 ft | 484 kts | 108° |
| 2026-05-06 18:30 | 43.29077 | 21.45396 | 48014 ft | 484 kts | 108° |
| 2026-05-06 18:30 | 43.28065 | 21.49801 | 48212 ft | 484 kts | 108° |
| 2026-05-06 18:30 | 43.27047 | 21.54221 | 48404 ft | 484 kts | 108° |
| 2026-05-06 18:31 | 43.26042 | 21.58575 | 48592 ft | 484 kts | 108° |
| 2026-05-06 18:31 | 43.25021 | 21.62989 | 48775 ft | 484 kts | 108° |
| 2026-05-06 18:31 | 43.24008 | 21.67363 | 48942 ft | 477 kts | 108° |
| 2026-05-06 18:31 | 43.22994 | 21.71729 | 48932 ft | 481 kts | 108° |
| 2026-05-06 18:32 | 43.20948 | 21.80517 | 48935 ft | 490 kts | 108° |
| 2026-05-06 18:32 | 43.18854 | 21.89478 | 48946 ft | 497 kts | 108° |
| 2026-05-06 18:33 | 43.16735 | 21.98505 | 48952 ft | 496 kts | 108° |
| 2026-05-06 18:33 | 43.14616 | 22.07494 | 48944 ft | 497 kts | 108° |
| 2026-05-06 18:34 | 43.12489 | 22.16484 | 48956 ft | 496 kts | 108° |
| 2026-05-06 18:34 | 43.10365 | 22.25427 | 48967 ft | 496 kts | 108° |
| 2026-05-06 18:35 | 43.08221 | 22.34414 | 48973 ft | 496 kts | 108° |
| 2026-05-06 18:35 | 43.06073 | 22.43387 | 48973 ft | 496 kts | 108° |
| 2026-05-06 18:36 | 43.03917 | 22.52354 | 48979 ft | 495 kts | 108° |
| 2026-05-06 18:36 | 43.01772 | 22.61242 | 48984 ft | 495 kts | 108° |
| 2026-05-06 18:37 | 42.99969 | 22.68687 | 48996 ft | 495 kts | 108° |
| 2026-05-06 18:37 | 42.97427 | 22.79133 | 48997 ft | 495 kts | 109° |
| 2026-05-06 18:38 | 42.94886 | 22.87872 | 48985 ft | 495 kts | 113° |
| 2026-05-06 18:38 | 42.92303 | 22.96540 | 48990 ft | 495 kts | 112° |
| 2026-05-06 18:39 | 42.89728 | 23.05257 | 48989 ft | 494 kts | 112° |
| 2026-05-06 18:40 | 42.85846 | 23.18242 | 49014 ft | 495 kts | 112° |
| 2026-05-06 18:40 | 42.83240 | 23.26925 | 49017 ft | 495 kts | 112° |
| 2026-05-06 18:41 | 42.80626 | 23.35619 | 49020 ft | 496 kts | 112° |
| 2026-05-06 18:41 | 42.78003 | 23.44308 | 49005 ft | 495 kts | 112° |
| 2026-05-06 18:42 | 42.75388 | 23.52944 | 49006 ft | 496 kts | 112° |
| 2026-05-06 18:42 | 42.72752 | 23.61622 | 49003 ft | 496 kts | 112° |
| 2026-05-06 18:43 | 42.70100 | 23.70320 | 49013 ft | 497 kts | 112° |
| 2026-05-06 18:43 | 42.67458 | 23.78958 | 49015 ft | 498 kts | 112° |
| 2026-05-06 18:44 | 42.64977 | 23.87743 | 49010 ft | 497 kts | 110° |
| 2026-05-06 18:44 | 42.62558 | 23.96546 | 49014 ft | 499 kts | 110° |
| 2026-05-06 18:45 | 42.60121 | 24.05392 | 49008 ft | 498 kts | 110° |
| 2026-05-06 18:45 | 42.58364 | 24.14393 | 49007 ft | 498 kts | 100° |
| 2026-05-06 18:46 | 42.57039 | 24.23633 | 49006 ft | 497 kts | 101° |
| 2026-05-06 18:46 | 42.55546 | 24.32779 | 49001 ft | 496 kts | 101° |
| 2026-05-06 18:47 | 42.54160 | 24.41946 | 49004 ft | 496 kts | 101° |
| 2026-05-06 18:47 | 42.52691 | 24.51099 | 48989 ft | 497 kts | 101° |
| 2026-05-06 18:48 | 42.51263 | 24.60245 | 48994 ft | 494 kts | 101° |
| 2026-05-06 18:48 | 42.49808 | 24.69341 | 48989 ft | 494 kts | 101° |
| 2026-05-06 18:49 | 42.48358 | 24.78441 | 48988 ft | 494 kts | 101° |
| 2026-05-06 18:49 | 42.46902 | 24.87489 | 48995 ft | 494 kts | 101° |
| 2026-05-06 18:50 | 42.45431 | 24.96605 | 48992 ft | 494 kts | 101° |
| 2026-05-06 18:50 | 42.43953 | 25.05703 | 48990 ft | 493 kts | 101° |
| 2026-05-06 18:51 | 42.42469 | 25.14792 | 48989 ft | 495 kts | 101° |
| 2026-05-06 18:51 | 42.40985 | 25.23835 | 48993 ft | 494 kts | 101° |
| 2026-05-06 18:52 | 42.39498 | 25.32842 | 48987 ft | 489 kts | 101° |
| 2026-05-06 18:52 | 42.38005 | 25.41849 | 48993 ft | 491 kts | 101° |
| 2026-05-06 18:53 | 42.36757 | 25.49331 | 48994 ft | 491 kts | 101° |
| 2026-05-06 18:53 | 42.35256 | 25.58295 | 48993 ft | 487 kts | 102° |
| 2026-05-06 18:54 | 42.33506 | 25.68697 | 49002 ft | 489 kts | 102° |
| 2026-05-06 18:54 | 42.32232 | 25.76218 | 49008 ft | 489 kts | 102° |
| 2026-05-06 18:55 | 42.30718 | 25.85130 | 49017 ft | 489 kts | 102° |
| 2026-05-06 18:55 | 42.29184 | 25.94104 | 49014 ft | 489 kts | 102° |
| 2026-05-06 18:56 | 42.27655 | 26.03009 | 49014 ft | 489 kts | 102° |
| 2026-05-06 18:56 | 42.26109 | 26.11964 | 49013 ft | 489 kts | 102° |
| 2026-05-06 18:57 | 42.24555 | 26.20921 | 49021 ft | 489 kts | 102° |
| 2026-05-06 18:57 | 42.23004 | 26.29824 | 49036 ft | 490 kts | 102° |
| 2026-05-06 18:58 | 42.21434 | 26.38779 | 49034 ft | 490 kts | 102° |
| 2026-05-06 18:58 | 42.19860 | 26.47727 | 49033 ft | 490 kts | 102° |
| 2026-05-06 18:59 | 42.18290 | 26.56601 | 49037 ft | 489 kts | 102° |
| 2026-05-06 18:59 | 42.16705 | 26.65518 | 49031 ft | 489 kts | 102° |
| 2026-05-06 19:00 | 42.15108 | 26.74457 | 49036 ft | 489 kts | 102° |
| 2026-05-06 19:00 | 42.13509 | 26.83364 | 49049 ft | 489 kts | 102° |
| 2026-05-06 19:01 | 42.11914 | 26.92211 | 49048 ft | 489 kts | 102° |
| 2026-05-06 19:01 | 42.10299 | 27.01119 | 49055 ft | 489 kts | 102° |
| 2026-05-06 19:02 | 42.08677 | 27.10026 | 49063 ft | 489 kts | 102° |
| 2026-05-06 19:02 | 42.07041 | 27.18851 | 49057 ft | 489 kts | 105° |
| 2026-05-06 19:03 | 42.04177 | 27.27160 | 49073 ft | 492 kts | 122° |
| 2026-05-06 19:03 | 42.00324 | 27.34643 | 49077 ft | 492 kts | 124° |
| 2026-05-06 19:04 | 41.96709 | 27.42456 | 49077 ft | 492 kts | 120° |
| 2026-05-06 19:04 | 41.93031 | 27.50132 | 49071 ft | 493 kts | 123° |
| 2026-05-06 19:05 | 41.89324 | 27.57891 | 49083 ft | 493 kts | 122° |
| 2026-05-06 19:05 | 41.85972 | 27.65902 | 49084 ft | 492 kts | 112° |
| 2026-05-06 19:06 | 41.83557 | 27.74506 | 49102 ft | 492 kts | 109° |
| 2026-05-06 19:06 | 41.80878 | 27.82875 | 49099 ft | 491 kts | 114° |
| 2026-05-06 19:07 | 41.78202 | 27.91322 | 49093 ft | 491 kts | 111° |
| 2026-05-06 19:07 | 41.75553 | 27.99758 | 49095 ft | 491 kts | 113° |
| 2026-05-06 19:08 | 41.72866 | 28.08118 | 49100 ft | 491 kts | 112° |
| 2026-05-06 19:08 | 41.70202 | 28.16552 | 49105 ft | 491 kts | 112° |
| 2026-05-06 19:09 | 41.67491 | 28.24962 | 49101 ft | 491 kts | 112° |
| 2026-05-06 19:09 | 41.64820 | 28.33327 | 49100 ft | 491 kts | 112° |
| 2026-05-06 19:10 | 41.62112 | 28.41710 | 49102 ft | 490 kts | 112° |
| 2026-05-06 19:10 | 41.59422 | 28.50056 | 49104 ft | 491 kts | 112° |
| 2026-05-06 19:11 | 41.56707 | 28.58430 | 49100 ft | 490 kts | 113° |
| 2026-05-06 19:11 | 41.53989 | 28.66800 | 49099 ft | 490 kts | 113° |
| 2026-05-06 19:12 | 41.51265 | 28.75154 | 49091 ft | 490 kts | 113° |
| 2026-05-06 19:12 | 41.48556 | 28.83444 | 49088 ft | 490 kts | 113° |
| 2026-05-06 19:13 | 41.45818 | 28.91792 | 49100 ft | 490 kts | 113° |
| 2026-05-06 19:13 | 41.43084 | 29.00104 | 49097 ft | 490 kts | 113° |
| 2026-05-06 19:14 | 41.40341 | 29.08418 | 49101 ft | 490 kts | 113° |
| 2026-05-06 19:14 | 41.37612 | 29.16665 | 49095 ft | 490 kts | 113° |
| 2026-05-06 19:15 | 41.34851 | 29.24986 | 49098 ft | 491 kts | 113° |
| 2026-05-06 19:15 | 41.32076 | 29.33320 | 49096 ft | 491 kts | 113° |
| 2026-05-06 19:16 | 41.29319 | 29.41577 | 49092 ft | 491 kts | 113° |
| 2026-05-06 19:16 | 41.26534 | 29.49892 | 49099 ft | 491 kts | 113° |
| 2026-05-06 19:17 | 41.23750 | 29.58179 | 49088 ft | 491 kts | 113° |
| 2026-05-06 19:17 | 41.20969 | 29.66434 | 49093 ft | 492 kts | 113° |
| 2026-05-06 19:18 | 41.18158 | 29.74752 | 49093 ft | 494 kts | 113° |
| 2026-05-06 19:18 | 41.15335 | 29.83083 | 49092 ft | 494 kts | 113° |
| 2026-05-06 19:19 | 41.12508 | 29.91397 | 49094 ft | 494 kts | 113° |
| 2026-05-06 19:19 | 41.09671 | 29.99718 | 49082 ft | 494 kts | 113° |
| 2026-05-06 19:20 | 41.06838 | 30.08003 | 49093 ft | 496 kts | 113° |
| 2026-05-06 19:20 | 41.03984 | 30.16324 | 49085 ft | 495 kts | 113° |
| 2026-05-06 19:21 | 41.01128 | 30.24626 | 49077 ft | 495 kts | 113° |
| 2026-05-06 19:21 | 40.98269 | 30.32914 | 49078 ft | 494 kts | 114° |
| 2026-05-06 19:21 | 40.96864 | 30.36977 | 48637 ft | 493 kts | 114° |
| 2026-05-06 19:22 | 40.95428 | 30.41125 | 47841 ft | 493 kts | 114° |
| 2026-05-06 19:22 | 40.93998 | 30.45247 | 46905 ft | 494 kts | 114° |
| 2026-05-06 19:22 | 40.92560 | 30.49388 | 45958 ft | 494 kts | 114° |
| 2026-05-06 19:22 | 40.91123 | 30.53519 | 45011 ft | 493 kts | 114° |
| 2026-05-06 19:23 | 40.89688 | 30.57640 | 44004 ft | 491 kts | 114° |
| 2026-05-06 19:23 | 40.88261 | 30.61731 | 42963 ft | 489 kts | 114° |
| 2026-05-06 19:23 | 40.86856 | 30.65772 | 41928 ft | 487 kts | 112° |
| 2026-05-06 19:23 | 40.85694 | 30.69975 | 40878 ft | 485 kts | 106° |
| 2026-05-06 19:24 | 40.84721 | 30.74235 | 39894 ft | 483 kts | 104° |
| 2026-05-06 19:24 | 40.83773 | 30.78484 | 38955 ft | 480 kts | 104° |
| 2026-05-06 19:24 | 40.82774 | 30.82627 | 37874 ft | 478 kts | 105° |
| 2026-05-06 19:24 | 40.81738 | 30.86790 | 36778 ft | 477 kts | 105° |
| 2026-05-06 19:25 | 40.80736 | 30.90976 | 35739 ft | 477 kts | 104° |
| 2026-05-06 19:25 | 40.79760 | 30.95164 | 34742 ft | 477 kts | 104° |
| 2026-05-06 19:25 | 40.78762 | 30.99351 | 33709 ft | 478 kts | 104° |
| 2026-05-06 19:25 | 40.77741 | 31.03531 | 32600 ft | 479 kts | 105° |
| 2026-05-06 19:26 | 40.76722 | 31.07738 | 31602 ft | 489 kts | 104° |
| 2026-05-06 19:26 | 40.75713 | 31.11955 | 31105 ft | 483 kts | 104° |
| 2026-05-06 19:26 | 40.74690 | 31.16204 | 31107 ft | 488 kts | 104° |
| 2026-05-06 19:27 | 40.72608 | 31.24765 | 31101 ft | 490 kts | 104° |
| 2026-05-06 19:27 | 40.70537 | 31.33280 | 31105 ft | 490 kts | 105° |
| 2026-05-06 19:28 | 40.68004 | 31.41678 | 31100 ft | 492 kts | 107° |
| 2026-05-06 19:28 | 40.65706 | 31.50188 | 31123 ft | 493 kts | 106° |
| 2026-05-06 19:29 | 40.63441 | 31.58717 | 31120 ft | 493 kts | 106° |
| 2026-05-06 19:29 | 40.61175 | 31.67260 | 31117 ft | 493 kts | 106° |
| 2026-05-06 19:30 | 40.58940 | 31.75714 | 30869 ft | 493 kts | 105° |
| 2026-05-06 19:30 | 40.58008 | 31.80038 | 30458 ft | 489 kts | 102° |
| 2026-05-06 19:30 | 40.56923 | 31.84265 | 29554 ft | 484 kts | 109° |
| 2026-05-06 19:30 | 40.55594 | 31.88288 | 28737 ft | 476 kts | 112° |
| 2026-05-06 19:31 | 40.54204 | 31.92217 | 27937 ft | 469 kts | 112° |
| 2026-05-06 19:31 | 40.52983 | 31.96157 | 27136 ft | 462 kts | 108° |
| 2026-05-06 19:31 | 40.50802 | 32.03990 | 25570 ft | 451 kts | 109° |
| 2026-05-06 19:32 | 40.49592 | 32.07773 | 24808 ft | 446 kts | 111° |
| 2026-05-06 19:32 | 40.48420 | 32.11516 | 24048 ft | 440 kts | 109° |
| 2026-05-06 19:32 | 40.47326 | 32.15255 | 23250 ft | 434 kts | 109° |
| 2026-05-06 19:32 | 40.46263 | 32.18872 | 22522 ft | 428 kts | 109° |
| 2026-05-06 19:33 | 40.45150 | 32.22491 | 21791 ft | 423 kts | 110° |
| 2026-05-06 19:33 | 40.44047 | 32.26054 | 21070 ft | 418 kts | 110° |
| 2026-05-06 19:33 | 40.42982 | 32.29579 | 20361 ft | 413 kts | 110° |
| 2026-05-06 19:33 | 40.41935 | 32.33066 | 19657 ft | 408 kts | 110° |
| 2026-05-06 19:34 | 40.40889 | 32.36496 | 18960 ft | 402 kts | 110° |
| 2026-05-06 19:34 | 40.39849 | 32.39881 | 18248 ft | 398 kts | 110° |
| 2026-05-06 19:34 | 40.38826 | 32.43230 | 17560 ft | 393 kts | 110° |
| 2026-05-06 19:34 | 40.37656 | 32.46438 | 17079 ft | 388 kts | 122° |
| 2026-05-06 19:35 | 40.36079 | 32.49346 | 17127 ft | 391 kts | 125° |
| 2026-05-06 19:35 | 40.34471 | 32.52244 | 17131 ft | 392 kts | 125° |
| 2026-05-06 19:35 | 40.32892 | 32.55113 | 17126 ft | 391 kts | 125° |
| 2026-05-06 19:35 | 40.31305 | 32.58018 | 17085 ft | 393 kts | 125° |
| 2026-05-06 19:36 | 40.29734 | 32.60878 | 16500 ft | 374 kts | 125° |
| 2026-05-06 19:36 | 40.28247 | 32.63566 | 15902 ft | 357 kts | 125° |
| 2026-05-06 19:36 | 40.26740 | 32.66300 | 15324 ft | 374 kts | 125° |
| 2026-05-06 19:36 | 40.25215 | 32.69069 | 14716 ft | 375 kts | 125° |
| 2026-05-06 19:37 | 40.23690 | 32.71832 | 14001 ft | 372 kts | 125° |
| 2026-05-06 19:37 | 40.22199 | 32.74529 | 13224 ft | 367 kts | 125° |
| 2026-05-06 19:37 | 40.20960 | 32.77398 | 12368 ft | 361 kts | 110° |
| 2026-05-06 19:37 | 40.20604 | 32.79548 | 11804 ft | 356 kts | 96° |
| 2026-05-06 19:38 | 40.21021 | 32.83723 | 10892 ft | 350 kts | 70° |
| 2026-05-06 19:38 | 40.22241 | 32.86453 | 10246 ft | 348 kts | 51° |
| 2026-05-06 19:38 | 40.24044 | 32.88527 | 9596 ft | 341 kts | 37° |
| 2026-05-06 19:38 | 40.25910 | 32.90286 | 8964 ft | 320 kts | 36° |
| 2026-05-06 19:39 | 40.27654 | 32.91924 | 8649 ft | 296 kts | 36° |
| 2026-05-06 19:39 | 40.29287 | 32.93487 | 8385 ft | 289 kts | 36° |
| 2026-05-06 19:39 | 40.30902 | 32.95036 | 8076 ft | 286 kts | 36° |
| 2026-05-06 19:39 | 40.32504 | 32.96564 | 7792 ft | 284 kts | 36° |
| 2026-05-06 19:40 | 40.34080 | 32.98067 | 7499 ft | 281 kts | 36° |
| 2026-05-06 19:40 | 40.35619 | 32.99538 | 7497 ft | 266 kts | 36° |
| 2026-05-06 19:40 | 40.37136 | 33.00990 | 7505 ft | 270 kts | 36° |
| 2026-05-06 19:40 | 40.38064 | 33.02122 | 7450 ft | 272 kts | 53° |
| 2026-05-06 19:41 | 40.38677 | 33.04402 | 7437 ft | 269 kts | 86° |
| 2026-05-06 19:41 | 40.38610 | 33.06815 | 7530 ft | 270 kts | 96° |
| 2026-05-06 19:41 | 40.38443 | 33.09269 | 7530 ft | 269 kts | 96° |
| 2026-05-06 19:41 | 40.38273 | 33.11714 | 7519 ft | 269 kts | 96° |
| 2026-05-06 19:42 | 40.38097 | 33.14160 | 7447 ft | 271 kts | 96° |
| 2026-05-06 19:42 | 40.37919 | 33.16626 | 7166 ft | 270 kts | 96° |
| 2026-05-06 19:42 | 40.37644 | 33.19052 | 6819 ft | 268 kts | 108° |
| 2026-05-06 19:42 | 40.36559 | 33.20964 | 6457 ft | 260 kts | 146° |
| 2026-05-06 19:43 | 40.34912 | 33.21557 | 6442 ft | 245 kts | 184° |
| 2026-05-06 19:43 | 40.33377 | 33.20679 | 6462 ft | 245 kts | 223° |
| 2026-05-06 19:43 | 40.32595 | 33.18735 | 6537 ft | 245 kts | 256° |
| 2026-05-06 19:43 | 40.31822 | 33.16746 | 6582 ft | 247 kts | 226° |
| 2026-05-06 19:44 | 40.30366 | 33.15567 | 6637 ft | 248 kts | 205° |
| 2026-05-06 19:44 | 40.28767 | 33.14706 | 6637 ft | 248 kts | 203° |
| 2026-05-06 19:44 | 40.27247 | 33.13595 | 6416 ft | 252 kts | 214° |
| 2026-05-06 19:44 | 40.25910 | 33.12261 | 6087 ft | 237 kts | 218° |
| 2026-05-06 19:45 | 40.24647 | 33.11015 | 5758 ft | 222 kts | 216° |
| 2026-05-06 19:45 | 40.23449 | 33.09883 | 5460 ft | 198 kts | 216° |
| 2026-05-06 19:45 | 40.22423 | 33.08902 | 5199 ft | 167 kts | 217° |
| 2026-05-06 19:45 | 40.21527 | 33.08033 | 4993 ft | 156 kts | 217° |
| 2026-05-06 19:46 | 40.20680 | 33.07220 | 4798 ft | 145 kts | 217° |
| 2026-05-06 19:46 | 40.19896 | 33.06468 | 4589 ft | 135 kts | 217° |
| 2026-05-06 19:46 | 40.19149 | 33.05751 | 4389 ft | 132 kts | 217° |
| 2026-05-06 19:46 | 40.18406 | 33.05038 | 4210 ft | 133 kts | 216° |
| 2026-05-06 19:47 | 40.17671 | 33.04334 | 4032 ft | 132 kts | 216° |
| 2026-05-06 19:47 | 40.16941 | 33.03625 | 3863 ft | 130 kts | 217° |
| 2026-05-06 19:47 | 40.16224 | 33.02927 | 3740 ft | 127 kts | 216° |
| 2026-05-06 19:47 | 40.15505 | 33.02248 | 3554 ft | 128 kts | 217° |
| 2026-05-06 19:48 | 40.14775 | 33.01545 | 3351 ft | 131 kts | 217° |
| 2026-05-06 19:48 | 40.14044 | 33.00842 | 3180 ft | 129 kts | 216° |
| 2026-05-06 19:48 | 40.13353 | 33.00185 | 3127 ft | 118 kts | 215° |
| 2026-05-06 19:48 | 40.12828 | 32.99675 | 3120 ft | 65 kts | 217° |
| 2026-05-06 19:49 | 40.12620 | 32.99493 | 3118 ft | 11 kts | 171° |
| 2026-05-06 19:49 | 40.12592 | 32.99573 | 3118 ft | 6 kts | 90° |
| 2026-05-06 19:49 | 40.12592 | 32.99627 | 3118 ft | 6 kts | 90° |
| 2026-05-06 19:49 | 40.12591 | 32.99675 | 3119 ft | 5 kts | 90° |
| 2026-05-06 19:50 | 40.12591 | 32.99733 | 3119 ft | 8 kts | 86° |
| 2026-05-06 19:50 | 40.12595 | 32.99833 | 3119 ft | 10 kts | 91° |
| 2026-05-06 19:50 | 40.12594 | 32.99910 | 3118 ft | 7 kts | 91° |
| 2026-05-06 19:50 | 40.12594 | 32.99980 | 3118 ft | 9 kts | 91° |
| 2026-05-06 19:51 | 40.12593 | 33.00058 | 3118 ft | 8 kts | 91° |
| 2026-05-06 19:51 | 40.12592 | 33.00137 | 3118 ft | 10 kts | 90° |
| 2026-05-06 19:51 | 40.12582 | 33.00218 | 3118 ft | 7 kts | 138° |
| 2026-05-06 19:51 | 40.12531 | 33.00233 | 3118 ft | 9 kts | 171° |
| 2026-05-06 19:52 | 40.12461 | 33.00248 | 3118 ft | 12 kts | 171° |
| 2026-05-06 19:52 | 40.12401 | 33.00262 | 3118 ft | 7 kts | 170° |
| 2026-05-06 19:52 | 40.12350 | 33.00274 | 3118 ft | 7 kts | 175° |
| 2026-05-06 19:52 | 40.12338 | 33.00250 | 3118 ft | 3 kts | 268° |
| 2026-05-06 19:53 | 40.12336 | 33.00223 | 3118 ft | 2 kts | 258° |
| 2026-05-06 19:53 | 40.12335 | 33.00215 | 3118 ft | 0 kts | 259° |